Airfield :







YOU CAN JOIN US ON...

 
LOGIN :

Register | Disclaimer

   EN    FR    IT 

 









Legend :    VFR   Marginal VFR   IFR   Intensive IFR   Very Intensive IFR
Visi :
Ceiling :
>= 8 km
>= 3000ft
5 to 8 km
1000 to 3000 ft
1500m to 5 km
500 to 1000 ft
800 to 1500m
200 to 500 ft
< 800m
< 200 ft
Symbols :   Thunderstorms  Fog  Heavy snow  Heavy precipitations  Wind > 20 kt







- Airport Elevation : 342 ft


KCON - Concord Municipal

CURRENT METAR :
  • 171951Z AUTO 09004KT 10SM SCT055 OVC075 19/08 A3012 RMK AO2 SLPNO T01940083

EXPIRED METARs :
  • 171851Z AUTO 35004KT 10SM FEW050 OVC075 19/08 A3013 RMK AO2 SLPNO T01940078
  • 171751Z AUTO 04006KT 10SM FEW055 BKN070 20/07 A3013 RMK AO2 SLPNO 6//// T02000072

TAF KCON
Valid from the 17 at 18:00 until the 18 at 18:00 UTC


171739Z 1718/1818 01006KT P6SM SCT035
FM181100 00000KT P6SM BKN040
FM181600 VRB04KT P6SM SCT250
No reported NOTAMs for that airfield.



MET'MAP, your aeronautical weather chart ! - Copyright ORBIFLY December 2007 - Disclaimer

ORBIFLY MET'MAP TEAM :

Programming & Development : Alexandra Zaïnal
Concept & Development : Baudouin d'Aumeries
Co-Development & Prog : Marc-Olivier Méhu
Technical & hardware support : Manuel Goepfert

Contact : metmap@orbifly.com




SOURCES & CREDITS :

   NOAA